IE-0011 weather

Limetree Airfield
Limetree, County Laois, Ireland

Public forecast

Using degrees Celsius for public forecast. Weather courtesy of forecast.io.

METAR (pilot weather report)

Closest report is Casement Air Base, 30.6 nm (56.7 km) ENE. Retrieved 2019/06/20 22:00 UTC (33 minutes ago):

EIME 202200Z 24008KT 9999 FEW025 SCT040 10/07 Q1014

TAF (pilot weather forecast)

Closest forecast is Dublin Airport, 39.5 nm (73.2 km) ENE. Retrieved 2019/06/20 18:09 UTC (4 hours ago):

TAF EIDW 201700Z 2018/2118 27008KT 9999 FEW015 SCT020 TEMPO 2018/2022 VRB03KT PROB30 TEMPO 2102/2106 4900 BR BKN014 BECMG 2112/2115 14012KT